Accueil
METAR-TAF:

METAR-TAF

Aéroports :

Chatham Municipal Airport

Chatham, Massachusetts, États-Unis

latitude: 41-41-15N, longitude: 069-59-36W, altitude: 20 m

Observation

Le bulletin a été fait il y a 37 minutes, à 23:52 UTC
Vent 9 kt de nord-est
Température 18°C
Humidité 73%
Pression 1024 hPa
Visibilité: 16.1 km
Quelques nuages à une hauteur de 1900 ft

METAR: KCQX 152352Z AUTO 05009KT 10SM FEW019 18/13 A3025 RMK AO2 SLP246 T01780128 10200 20178 55000

Heure: 20:29 (00:29 UTC)


TAF: absent

Observations et prévisions météorologiques de plus de 4000 aéroports (messages METAR et TAF).

Les stations disponibles sont représentées par des disques jaunes et rouges sur la carte.

Passer la souris dessus pour voir le nom de la station.

Cliquer dessus pour voir les observations et prévisions météorologiques.

Pour changer de carte: cliquez sur les boutons verts avec une croix noire pour zoomer, sur le bouton vert avec un tiret pour effectuer un zoom arrière, ou sur les flèches vertes pour les cartes adjacentes.


METAR-TAF: